sensor_id;sensor_type;location;lat;lon;timestamp;P1;durP1;ratioP1;P2;durP2;ratioP2
77838;SDS011;67034;43.226;27.932;2023-09-12T00:00:40;6.15;;;4.13;;
77838;SDS011;67034;43.226;27.932;2023-09-12T00:03:05;4.47;;;3.65;;
77838;SDS011;67034;43.226;27.932;2023-09-12T00:05:31;6.13;;;4.13;;
77838;SDS011;67034;43.226;27.932;2023-09-12T00:07:57;5.28;;;3.75;;
77838;SDS011;67034;43.226;27.932;2023-09-12T00:10:22;5.78;;;3.97;;
77838;SDS011;67034;43.226;27.932;2023-09-12T00:12:50;4.72;;;3.80;;
77838;SDS011;67034;43.226;27.932;2023-09-12T00:15:15;8.05;;;4.72;;
77838;SDS011;67034;43.226;27.932;2023-09-12T00:17:41;5.38;;;4.07;;
77838;SDS011;67034;43.226;27.932;2023-09-12T00:20:07;6.10;;;4.70;;
77838;SDS011;67034;43.226;27.932;2023-09-12T00:22:33;7.03;;;3.90;;
77838;SDS011;67034;43.226;27.932;2023-09-12T00:24:59;5.95;;;4.10;;
77838;SDS011;67034;43.226;27.932;2023-09-12T00:27:25;7.35;;;4.25;;
77838;SDS011;67034;43.226;27.932;2023-09-12T00:29:52;5.95;;;3.78;;
77838;SDS011;67034;43.226;27.932;2023-09-12T00:32:17;4.57;;;4.03;;
77838;SDS011;67034;43.226;27.932;2023-09-12T00:34:43;5.93;;;4.18;;
77838;SDS011;67034;43.226;27.932;2023-09-12T00:37:09;4.53;;;3.80;;
77838;SDS011;67034;43.226;27.932;2023-09-12T00:39:35;5.72;;;4.05;;
77838;SDS011;67034;43.226;27.932;2023-09-12T00:42:00;6.60;;;4.03;;
77838;SDS011;67034;43.226;27.932;2023-09-12T00:44:26;5.30;;;4.30;;
77838;SDS011;67034;43.226;27.932;2023-09-12T00:46:53;6.20;;;3.95;;
77838;SDS011;67034;43.226;27.932;2023-09-12T00:49:20;7.53;;;4.28;;
77838;SDS011;67034;43.226;27.932;2023-09-12T00:51:47;5.85;;;4.28;;
77838;SDS011;67034;43.226;27.932;2023-09-12T00:54:14;4.97;;;3.75;;
77838;SDS011;67034;43.226;27.932;2023-09-12T00:56:40;7.57;;;3.85;;
77838;SDS011;67034;43.226;27.932;2023-09-12T00:59:07;5.95;;;4.13;;
77838;SDS011;67034;43.226;27.932;2023-09-12T01:01:34;5.18;;;3.70;;
77838;SDS011;67034;43.226;27.932;2023-09-12T01:04:01;5.25;;;4.22;;
77838;SDS011;67034;43.226;27.932;2023-09-12T01:06:27;4.85;;;4.07;;
77838;SDS011;67034;43.226;27.932;2023-09-12T01:08:54;6.70;;;4.45;;
77838;SDS011;67034;43.226;27.932;2023-09-12T01:11:20;4.93;;;3.75;;
77838;SDS011;67034;43.226;27.932;2023-09-12T01:13:46;5.80;;;4.25;;
77838;SDS011;67034;43.226;27.932;2023-09-12T01:16:12;4.85;;;4.00;;
77838;SDS011;67034;43.226;27.932;2023-09-12T01:18:38;5.43;;;3.90;;
77838;SDS011;67034;43.226;27.932;2023-09-12T01:21:24;5.70;;;4.35;;
77838;SDS011;67034;43.226;27.932;2023-09-12T01:24:26;6.15;;;4.20;;
77838;SDS011;67034;43.226;27.932;2023-09-12T01:27:19;4.68;;;3.95;;
77838;SDS011;67034;43.226;27.932;2023-09-12T01:29:46;6.82;;;4.03;;
77838;SDS011;67034;43.226;27.932;2023-09-12T01:32:16;5.68;;;4.18;;
77838;SDS011;67034;43.226;27.932;2023-09-12T01:34:44;5.53;;;3.58;;
77838;SDS011;67034;43.226;27.932;2023-09-12T01:37:10;5.20;;;3.45;;
77838;SDS011;67034;43.226;27.932;2023-09-12T01:39:36;4.90;;;3.83;;
77838;SDS011;67034;43.226;27.932;2023-09-12T01:42:02;5.47;;;3.95;;
77838;SDS011;67034;43.226;27.932;2023-09-12T01:44:30;5.82;;;3.85;;
77838;SDS011;67034;43.226;27.932;2023-09-12T01:46:57;5.88;;;4.32;;
77838;SDS011;67034;43.226;27.932;2023-09-12T01:49:28;4.70;;;3.95;;
77838;SDS011;67034;43.226;27.932;2023-09-12T01:51:54;4.93;;;4.05;;
77838;SDS011;67034;43.226;27.932;2023-09-12T01:54:21;5.95;;;3.85;;
77838;SDS011;67034;43.226;27.932;2023-09-12T01:56:47;5.07;;;3.70;;
77838;SDS011;67034;43.226;27.932;2023-09-12T01:59:13;5.63;;;4.00;;
77838;SDS011;67034;43.226;27.932;2023-09-12T02:01:40;5.05;;;3.65;;
77838;SDS011;67034;43.226;27.932;2023-09-12T02:04:07;6.18;;;4.15;;
77838;SDS011;67034;43.226;27.932;2023-09-12T02:06:34;4.80;;;3.97;;
77838;SDS011;67034;43.226;27.932;2023-09-12T02:08:59;5.10;;;3.90;;
77838;SDS011;67034;43.226;27.932;2023-09-12T02:11:25;5.55;;;3.90;;
77838;SDS011;67034;43.226;27.932;2023-09-12T02:13:51;5.63;;;3.85;;
77838;SDS011;67034;43.226;27.932;2023-09-12T02:16:17;5.65;;;4.45;;
77838;SDS011;67034;43.226;27.932;2023-09-12T02:18:44;5.00;;;3.83;;
77838;SDS011;67034;43.226;27.932;2023-09-12T02:21:10;6.10;;;4.20;;
77838;SDS011;67034;43.226;27.932;2023-09-12T02:23:35;6.28;;;4.25;;
77838;SDS011;67034;43.226;27.932;2023-09-12T02:26:01;5.13;;;4.30;;
77838;SDS011;67034;43.226;27.932;2023-09-12T02:28:27;5.57;;;4.40;;
77838;SDS011;67034;43.226;27.932;2023-09-12T02:30:52;7.07;;;4.13;;
77838;SDS011;67034;43.226;27.932;2023-09-12T02:33:18;6.10;;;4.20;;
77838;SDS011;67034;43.226;27.932;2023-09-12T02:35:45;4.90;;;3.67;;
77838;SDS011;67034;43.226;27.932;2023-09-12T02:38:11;6.38;;;4.22;;
77838;SDS011;67034;43.226;27.932;2023-09-12T02:40:36;6.18;;;4.88;;
77838;SDS011;67034;43.226;27.932;2023-09-12T02:43:02;6.93;;;4.25;;
77838;SDS011;67034;43.226;27.932;2023-09-12T02:45:28;7.25;;;4.10;;
77838;SDS011;67034;43.226;27.932;2023-09-12T02:47:54;5.63;;;4.43;;
77838;SDS011;67034;43.226;27.932;2023-09-12T02:50:19;5.75;;;4.28;;
77838;SDS011;67034;43.226;27.932;2023-09-12T02:52:47;6.85;;;4.18;;
77838;SDS011;67034;43.226;27.932;2023-09-12T02:55:12;6.40;;;4.10;;
77838;SDS011;67034;43.226;27.932;2023-09-12T02:57:38;5.82;;;4.22;;
77838;SDS011;67034;43.226;27.932;2023-09-12T03:00:04;7.07;;;3.72;;
77838;SDS011;67034;43.226;27.932;2023-09-12T03:02:33;4.13;;;3.30;;
77838;SDS011;67034;43.226;27.932;2023-09-12T03:04:59;5.20;;;4.13;;
77838;SDS011;67034;43.226;27.932;2023-09-12T03:07:26;5.43;;;4.20;;
77838;SDS011;67034;43.226;27.932;2023-09-12T03:09:53;6.13;;;3.97;;
77838;SDS011;67034;43.226;27.932;2023-09-12T03:12:19;5.35;;;3.90;;
77838;SDS011;67034;43.226;27.932;2023-09-12T03:14:44;7.78;;;4.20;;
77838;SDS011;67034;43.226;27.932;2023-09-12T03:17:10;5.22;;;3.67;;
77838;SDS011;67034;43.226;27.932;2023-09-12T03:19:36;6.18;;;4.10;;
77838;SDS011;67034;43.226;27.932;2023-09-12T03:22:02;6.28;;;4.10;;
77838;SDS011;67034;43.226;27.932;2023-09-12T03:24:27;5.50;;;4.00;;
77838;SDS011;67034;43.226;27.932;2023-09-12T03:26:55;5.35;;;4.05;;
77838;SDS011;67034;43.226;27.932;2023-09-12T03:29:21;5.72;;;4.20;;
77838;SDS011;67034;43.226;27.932;2023-09-12T03:31:46;4.68;;;3.72;;
77838;SDS011;67034;43.226;27.932;2023-09-12T03:34:12;5.95;;;3.97;;
77838;SDS011;67034;43.226;27.932;2023-09-12T03:36:38;9.23;;;4.65;;
77838;SDS011;67034;43.226;27.932;2023-09-12T03:39:03;5.32;;;4.32;;
77838;SDS011;67034;43.226;27.932;2023-09-12T03:41:33;5.43;;;4.18;;
77838;SDS011;67034;43.226;27.932;2023-09-12T03:44:01;7.18;;;4.47;;
77838;SDS011;67034;43.226;27.932;2023-09-12T03:46:27;6.40;;;4.10;;
77838;SDS011;67034;43.226;27.932;2023-09-12T03:48:53;7.03;;;4.78;;
77838;SDS011;67034;43.226;27.932;2023-09-12T03:51:18;6.72;;;4.45;;
77838;SDS011;67034;43.226;27.932;2023-09-12T03:53:44;6.95;;;4.50;;
77838;SDS011;67034;43.226;27.932;2023-09-12T03:56:12;5.72;;;4.28;;
77838;SDS011;67034;43.226;27.932;2023-09-12T03:58:39;5.32;;;4.30;;
77838;SDS011;67034;43.226;27.932;2023-09-12T04:01:06;6.00;;;4.93;;
77838;SDS011;67034;43.226;27.932;2023-09-12T04:03:32;5.75;;;4.20;;
77838;SDS011;67034;43.226;27.932;2023-09-12T04:05:58;5.57;;;4.03;;
77838;SDS011;67034;43.226;27.932;2023-09-12T04:08:24;6.50;;;4.20;;
77838;SDS011;67034;43.226;27.932;2023-09-12T04:10:50;7.38;;;4.95;;
77838;SDS011;67034;43.226;27.932;2023-09-12T04:13:15;27.17;;;15.65;;
77838;SDS011;67034;43.226;27.932;2023-09-12T04:15:41;19.85;;;13.98;;
77838;SDS011;67034;43.226;27.932;2023-09-12T04:18:08;13.32;;;9.32;;
77838;SDS011;67034;43.226;27.932;2023-09-12T04:20:34;12.15;;;8.30;;
77838;SDS011;67034;43.226;27.932;2023-09-12T04:23:00;9.85;;;7.00;;
77838;SDS011;67034;43.226;27.932;2023-09-12T04:25:26;7.80;;;5.68;;
77838;SDS011;67034;43.226;27.932;2023-09-12T04:27:52;11.45;;;6.35;;
77838;SDS011;67034;43.226;27.932;2023-09-12T04:30:18;14.93;;;5.55;;
77838;SDS011;67034;43.226;27.932;2023-09-12T04:32:43;9.95;;;5.35;;
77838;SDS011;67034;43.226;27.932;2023-09-12T04:35:10;11.10;;;5.10;;
77838;SDS011;67034;43.226;27.932;2023-09-12T04:37:36;8.77;;;4.72;;
77838;SDS011;67034;43.226;27.932;2023-09-12T04:40:02;16.67;;;5.25;;
77838;SDS011;67034;43.226;27.932;2023-09-12T04:42:31;20.08;;;6.32;;
77838;SDS011;67034;43.226;27.932;2023-09-12T04:44:56;22.52;;;5.85;;
77838;SDS011;67034;43.226;27.932;2023-09-12T04:47:22;22.60;;;5.38;;
77838;SDS011;67034;43.226;27.932;2023-09-12T04:49:48;38.08;;;6.68;;
77838;SDS011;67034;43.226;27.932;2023-09-12T04:52:18;25.40;;;6.25;;
77838;SDS011;67034;43.226;27.932;2023-09-12T04:54:44;28.05;;;6.07;;
77838;SDS011;67034;43.226;27.932;2023-09-12T04:57:10;13.18;;;4.60;;
77838;SDS011;67034;43.226;27.932;2023-09-12T04:59:37;8.18;;;5.30;;
77838;SDS011;67034;43.226;27.932;2023-09-12T05:02:03;11.70;;;5.38;;
77838;SDS011;67034;43.226;27.932;2023-09-12T05:04:29;23.23;;;6.00;;
77838;SDS011;67034;43.226;27.932;2023-09-12T05:06:54;9.18;;;4.88;;
77838;SDS011;67034;43.226;27.932;2023-09-12T05:09:21;12.38;;;4.90;;
77838;SDS011;67034;43.226;27.932;2023-09-12T05:11:47;6.22;;;4.65;;
77838;SDS011;67034;43.226;27.932;2023-09-12T05:14:14;7.80;;;5.05;;
77838;SDS011;67034;43.226;27.932;2023-09-12T05:16:40;17.33;;;6.20;;
77838;SDS011;67034;43.226;27.932;2023-09-12T05:19:06;17.75;;;6.18;;
77838;SDS011;67034;43.226;27.932;2023-09-12T05:21:32;29.77;;;7.95;;
77838;SDS011;67034;43.226;27.932;2023-09-12T05:23:58;23.95;;;6.78;;
77838;SDS011;67034;43.226;27.932;2023-09-12T05:26:25;23.55;;;7.43;;
77838;SDS011;67034;43.226;27.932;2023-09-12T05:28:50;17.65;;;6.97;;
77838;SDS011;67034;43.226;27.932;2023-09-12T05:31:16;16.48;;;7.30;;
77838;SDS011;67034;43.226;27.932;2023-09-12T05:33:42;25.35;;;8.07;;
77838;SDS011;67034;43.226;27.932;2023-09-12T05:36:07;38.65;;;9.68;;
77838;SDS011;67034;43.226;27.932;2023-09-12T05:38:33;64.15;;;11.45;;
77838;SDS011;67034;43.226;27.932;2023-09-12T05:40:59;35.53;;;9.70;;
77838;SDS011;67034;43.226;27.932;2023-09-12T05:43:26;27.02;;;10.30;;
77838;SDS011;67034;43.226;27.932;2023-09-12T05:45:52;24.13;;;9.20;;
77838;SDS011;67034;43.226;27.932;2023-09-12T05:48:18;25.77;;;9.70;;
77838;SDS011;67034;43.226;27.932;2023-09-12T05:50:43;30.20;;;11.30;;
77838;SDS011;67034;43.226;27.932;2023-09-12T05:53:09;22.13;;;9.80;;
77838;SDS011;67034;43.226;27.932;2023-09-12T05:55:35;20.90;;;9.55;;
77838;SDS011;67034;43.226;27.932;2023-09-12T05:58:02;27.73;;;10.10;;
77838;SDS011;67034;43.226;27.932;2023-09-12T06:00:32;20.33;;;11.95;;
77838;SDS011;67034;43.226;27.932;2023-09-12T06:02:57;14.50;;;8.20;;
77838;SDS011;67034;43.226;27.932;2023-09-12T06:05:23;17.02;;;10.50;;
77838;SDS011;67034;43.226;27.932;2023-09-12T06:07:49;14.70;;;7.20;;
77838;SDS011;67034;43.226;27.932;2023-09-12T06:10:15;9.90;;;7.35;;
77838;SDS011;67034;43.226;27.932;2023-09-12T06:12:41;14.77;;;8.48;;
77838;SDS011;67034;43.226;27.932;2023-09-12T06:15:07;19.58;;;9.40;;
77838;SDS011;67034;43.226;27.932;2023-09-12T06:17:34;11.18;;;7.30;;
77838;SDS011;67034;43.226;27.932;2023-09-12T06:20:00;19.90;;;5.97;;
77838;SDS011;67034;43.226;27.932;2023-09-12T06:22:26;7.95;;;5.05;;
77838;SDS011;67034;43.226;27.932;2023-09-12T06:24:52;6.45;;;4.30;;
77838;SDS011;67034;43.226;27.932;2023-09-12T06:27:19;9.63;;;6.25;;
77838;SDS011;67034;43.226;27.932;2023-09-12T06:29:45;12.05;;;5.88;;
77838;SDS011;67034;43.226;27.932;2023-09-12T06:32:14;11.45;;;5.50;;
77838;SDS011;67034;43.226;27.932;2023-09-12T06:34:42;15.73;;;8.05;;
77838;SDS011;67034;43.226;27.932;2023-09-12T06:37:08;10.00;;;6.30;;
77838;SDS011;67034;43.226;27.932;2023-09-12T06:39:33;12.00;;;5.95;;
77838;SDS011;67034;43.226;27.932;2023-09-12T06:41:59;10.98;;;6.30;;
77838;SDS011;67034;43.226;27.932;2023-09-12T06:44:25;7.70;;;6.18;;
77838;SDS011;67034;43.226;27.932;2023-09-12T06:46:51;6.15;;;3.97;;
77838;SDS011;67034;43.226;27.932;2023-09-12T06:49:16;8.68;;;5.07;;
77838;SDS011;67034;43.226;27.932;2023-09-12T06:51:43;19.02;;;6.38;;
77838;SDS011;67034;43.226;27.932;2023-09-12T06:54:09;8.43;;;5.45;;
77838;SDS011;67034;43.226;27.932;2023-09-12T06:56:35;21.67;;;8.18;;
77838;SDS011;67034;43.226;27.932;2023-09-12T06:59:02;6.78;;;3.67;;
77838;SDS011;67034;43.226;27.932;2023-09-12T07:01:29;5.40;;;3.72;;
77838;SDS011;67034;43.226;27.932;2023-09-12T07:03:55;5.35;;;3.60;;
77838;SDS011;67034;43.226;27.932;2023-09-12T07:06:21;9.48;;;4.55;;
77838;SDS011;67034;43.226;27.932;2023-09-12T07:08:48;4.13;;;3.22;;
77838;SDS011;67034;43.226;27.932;2023-09-12T07:11:14;8.35;;;3.25;;
77838;SDS011;67034;43.226;27.932;2023-09-12T07:13:40;6.07;;;3.28;;
77838;SDS011;67034;43.226;27.932;2023-09-12T07:16:05;13.65;;;4.50;;
77838;SDS011;67034;43.226;27.932;2023-09-12T07:18:31;5.38;;;3.30;;
77838;SDS011;67034;43.226;27.932;2023-09-12T07:21:00;14.82;;;3.70;;
77838;SDS011;67034;43.226;27.932;2023-09-12T07:23:27;5.63;;;3.55;;
77838;SDS011;67034;43.226;27.932;2023-09-12T07:25:55;8.55;;;3.67;;
77838;SDS011;67034;43.226;27.932;2023-09-12T07:28:22;4.03;;;3.00;;
77838;SDS011;67034;43.226;27.932;2023-09-12T07:30:48;4.57;;;3.00;;
77838;SDS011;67034;43.226;27.932;2023-09-12T07:33:14;10.85;;;3.97;;
77838;SDS011;67034;43.226;27.932;2023-09-12T07:35:41;5.13;;;3.50;;
77838;SDS011;67034;43.226;27.932;2023-09-12T07:38:06;7.43;;;3.33;;
77838;SDS011;67034;43.226;27.932;2023-09-12T07:40:32;5.03;;;3.00;;
77838;SDS011;67034;43.226;27.932;2023-09-12T07:42:59;7.90;;;3.67;;
77838;SDS011;67034;43.226;27.932;2023-09-12T07:45:25;15.75;;;4.43;;
77838;SDS011;67034;43.226;27.932;2023-09-12T07:47:51;5.70;;;3.40;;
77838;SDS011;67034;43.226;27.932;2023-09-12T07:50:16;15.73;;;4.10;;
77838;SDS011;67034;43.226;27.932;2023-09-12T07:52:42;15.23;;;4.95;;
77838;SDS011;67034;43.226;27.932;2023-09-12T07:55:08;5.20;;;3.63;;
77838;SDS011;67034;43.226;27.932;2023-09-12T07:57:34;5.13;;;3.20;;
77838;SDS011;67034;43.226;27.932;2023-09-12T08:00:03;10.27;;;4.18;;
77838;SDS011;67034;43.226;27.932;2023-09-12T08:02:35;11.85;;;4.45;;
77838;SDS011;67034;43.226;27.932;2023-09-12T08:05:01;8.15;;;3.60;;
77838;SDS011;67034;43.226;27.932;2023-09-12T08:07:27;20.08;;;4.93;;
77838;SDS011;67034;43.226;27.932;2023-09-12T08:09:53;10.60;;;3.90;;
77838;SDS011;67034;43.226;27.932;2023-09-12T08:12:20;22.00;;;5.20;;
77838;SDS011;67034;43.226;27.932;2023-09-12T08:14:47;19.00;;;5.07;;
77838;SDS011;67034;43.226;27.932;2023-09-12T08:17:15;5.97;;;3.85;;
77838;SDS011;67034;43.226;27.932;2023-09-12T08:19:41;8.00;;;3.75;;
77838;SDS011;67034;43.226;27.932;2023-09-12T08:22:07;14.90;;;5.28;;
77838;SDS011;67034;43.226;27.932;2023-09-12T08:24:33;27.60;;;5.75;;
77838;SDS011;67034;43.226;27.932;2023-09-12T08:26:59;15.32;;;4.93;;
77838;SDS011;67034;43.226;27.932;2023-09-12T08:29:25;12.52;;;4.57;;
77838;SDS011;67034;43.226;27.932;2023-09-12T08:31:51;8.73;;;4.15;;
77838;SDS011;67034;43.226;27.932;2023-09-12T08:34:19;12.68;;;4.10;;
77838;SDS011;67034;43.226;27.932;2023-09-12T08:36:45;16.38;;;4.50;;
77838;SDS011;67034;43.226;27.932;2023-09-12T08:39:13;9.73;;;4.25;;
77838;SDS011;67034;43.226;27.932;2023-09-12T08:41:40;18.85;;;5.72;;
77838;SDS011;67034;43.226;27.932;2023-09-12T08:44:05;23.63;;;4.38;;
77838;SDS011;67034;43.226;27.932;2023-09-12T08:46:32;25.65;;;5.90;;
77838;SDS011;67034;43.226;27.932;2023-09-12T08:48:58;11.23;;;4.10;;
77838;SDS011;67034;43.226;27.932;2023-09-12T08:51:25;23.17;;;6.32;;
77838;SDS011;67034;43.226;27.932;2023-09-12T08:53:52;14.98;;;4.30;;
77838;SDS011;67034;43.226;27.932;2023-09-12T08:56:18;16.10;;;4.50;;
77838;SDS011;67034;43.226;27.932;2023-09-12T08:58:44;8.35;;;3.50;;
77838;SDS011;67034;43.226;27.932;2023-09-12T09:01:10;22.40;;;4.68;;
77838;SDS011;67034;43.226;27.932;2023-09-12T09:03:38;12.32;;;3.80;;
77838;SDS011;67034;43.226;27.932;2023-09-12T09:06:06;15.82;;;4.22;;
77838;SDS011;67034;43.226;27.932;2023-09-12T09:08:35;9.40;;;3.85;;
77838;SDS011;67034;43.226;27.932;2023-09-12T09:11:02;15.32;;;4.18;;
77838;SDS011;67034;43.226;27.932;2023-09-12T09:13:28;20.42;;;4.70;;
77838;SDS011;67034;43.226;27.932;2023-09-12T09:16:10;10.88;;;5.13;;
77838;SDS011;67034;43.226;27.932;2023-09-12T09:18:50;6.97;;;3.53;;
77838;SDS011;67034;43.226;27.932;2023-09-12T09:21:17;6.65;;;3.42;;
77838;SDS011;67034;43.226;27.932;2023-09-12T09:23:46;6.20;;;3.30;;
77838;SDS011;67034;43.226;27.932;2023-09-12T09:26:12;8.68;;;3.58;;
77838;SDS011;67034;43.226;27.932;2023-09-12T09:28:38;12.52;;;3.92;;
77838;SDS011;67034;43.226;27.932;2023-09-12T09:31:10;7.70;;;3.17;;
77838;SDS011;67034;43.226;27.932;2023-09-12T09:33:36;18.73;;;3.85;;
77838;SDS011;67034;43.226;27.932;2023-09-12T09:36:04;10.18;;;3.72;;
77838;SDS011;67034;43.226;27.932;2023-09-12T09:38:31;13.93;;;3.67;;
77838;SDS011;67034;43.226;27.932;2023-09-12T09:40:58;6.57;;;2.90;;
77838;SDS011;67034;43.226;27.932;2023-09-12T09:43:24;12.18;;;3.13;;
77838;SDS011;67034;43.226;27.932;2023-09-12T09:45:50;14.93;;;4.35;;
77838;SDS011;67034;43.226;27.932;2023-09-12T09:48:19;11.68;;;3.45;;
77838;SDS011;67034;43.226;27.932;2023-09-12T09:50:45;10.20;;;3.65;;
77838;SDS011;67034;43.226;27.932;2023-09-12T09:53:10;12.00;;;3.80;;
77838;SDS011;67034;43.226;27.932;2023-09-12T09:55:36;15.75;;;3.40;;
77838;SDS011;67034;43.226;27.932;2023-09-12T09:58:03;7.47;;;3.22;;
77838;SDS011;67034;43.226;27.932;2023-09-12T10:00:30;10.55;;;3.20;;
77838;SDS011;67034;43.226;27.932;2023-09-12T10:02:59;10.68;;;3.78;;
77838;SDS011;67034;43.226;27.932;2023-09-12T10:05:26;7.60;;;3.97;;
77838;SDS011;67034;43.226;27.932;2023-09-12T10:07:54;11.00;;;3.33;;
77838;SDS011;67034;43.226;27.932;2023-09-12T10:10:21;8.93;;;3.08;;
77838;SDS011;67034;43.226;27.932;2023-09-12T10:12:50;10.82;;;3.58;;
77838;SDS011;67034;43.226;27.932;2023-09-12T10:15:23;23.52;;;4.38;;
77838;SDS011;67034;43.226;27.932;2023-09-12T10:17:55;8.38;;;2.97;;
77838;SDS011;67034;43.226;27.932;2023-09-12T10:20:25;8.40;;;3.35;;
77838;SDS011;67034;43.226;27.932;2023-09-12T10:23:00;11.57;;;3.85;;
77838;SDS011;67034;43.226;27.932;2023-09-12T10:25:34;5.80;;;2.95;;
77838;SDS011;67034;43.226;27.932;2023-09-12T10:28:02;8.07;;;3.30;;
77838;SDS011;67034;43.226;27.932;2023-09-12T10:30:30;23.17;;;3.97;;
77838;SDS011;67034;43.226;27.932;2023-09-12T10:32:57;24.13;;;4.55;;
77838;SDS011;67034;43.226;27.932;2023-09-12T10:35:24;9.95;;;2.55;;
77838;SDS011;67034;43.226;27.932;2023-09-12T10:37:50;8.38;;;3.03;;
77838;SDS011;67034;43.226;27.932;2023-09-12T10:40:16;5.03;;;2.53;;
77838;SDS011;67034;43.226;27.932;2023-09-12T10:42:45;5.18;;;2.47;;
77838;SDS011;67034;43.226;27.932;2023-09-12T10:45:12;12.77;;;3.53;;
77838;SDS011;67034;43.226;27.932;2023-09-12T10:47:40;3.58;;;2.22;;
77838;SDS011;67034;43.226;27.932;2023-09-12T10:50:06;15.80;;;3.63;;
77838;SDS011;67034;43.226;27.932;2023-09-12T10:52:33;9.73;;;3.08;;
77838;SDS011;67034;43.226;27.932;2023-09-12T10:55:04;12.25;;;3.08;;
77838;SDS011;67034;43.226;27.932;2023-09-12T10:57:30;16.50;;;4.18;;
77838;SDS011;67034;43.226;27.932;2023-09-12T11:00:12;9.65;;;3.10;;
77838;SDS011;67034;43.226;27.932;2023-09-12T11:02:40;12.90;;;2.97;;
77838;SDS011;67034;43.226;27.932;2023-09-12T11:05:07;15.32;;;3.60;;
77838;SDS011;67034;43.226;27.932;2023-09-12T11:08:16;8.43;;;2.72;;
77838;SDS011;67034;43.226;27.932;2023-09-12T11:10:41;12.85;;;2.88;;
77838;SDS011;67034;43.226;27.932;2023-09-12T11:13:07;10.25;;;3.10;;
77838;SDS011;67034;43.226;27.932;2023-09-12T11:15:47;19.75;;;4.07;;
77838;SDS011;67034;43.226;27.932;2023-09-12T11:18:46;20.20;;;3.85;;
77838;SDS011;67034;43.226;27.932;2023-09-12T11:21:43;16.88;;;5.75;;
77838;SDS011;67034;43.226;27.932;2023-09-12T11:24:09;4.72;;;2.88;;
77838;SDS011;67034;43.226;27.932;2023-09-12T11:26:44;9.50;;;2.92;;
77838;SDS011;67034;43.226;27.932;2023-09-12T11:29:19;6.95;;;2.88;;
77838;SDS011;67034;43.226;27.932;2023-09-12T11:31:52;15.13;;;2.97;;
77838;SDS011;67034;43.226;27.932;2023-09-12T11:34:22;7.45;;;3.08;;
77838;SDS011;67034;43.226;27.932;2023-09-12T11:36:49;4.93;;;2.28;;
77838;SDS011;67034;43.226;27.932;2023-09-12T11:39:22;21.13;;;3.65;;
77838;SDS011;67034;43.226;27.932;2023-09-12T11:41:49;6.38;;;2.78;;
77838;SDS011;67034;43.226;27.932;2023-09-12T11:44:15;6.60;;;2.88;;
77838;SDS011;67034;43.226;27.932;2023-09-12T11:46:41;22.58;;;4.53;;
77838;SDS011;67034;43.226;27.932;2023-09-12T11:49:09;16.70;;;3.45;;
77838;SDS011;67034;43.226;27.932;2023-09-12T11:51:35;12.27;;;3.53;;
77838;SDS011;67034;43.226;27.932;2023-09-12T11:54:01;7.53;;;3.05;;
77838;SDS011;67034;43.226;27.932;2023-09-12T11:56:29;8.30;;;2.90;;
77838;SDS011;67034;43.226;27.932;2023-09-12T11:58:56;6.68;;;2.30;;
77838;SDS011;67034;43.226;27.932;2023-09-12T12:01:21;13.70;;;2.85;;
77838;SDS011;67034;43.226;27.932;2023-09-12T12:03:47;7.43;;;2.63;;
77838;SDS011;67034;43.226;27.932;2023-09-12T12:06:19;8.55;;;3.17;;
77838;SDS011;67034;43.226;27.932;2023-09-12T12:08:46;24.00;;;3.97;;
77838;SDS011;67034;43.226;27.932;2023-09-12T12:11:12;24.17;;;5.07;;
77838;SDS011;67034;43.226;27.932;2023-09-12T12:13:38;6.40;;;2.67;;
77838;SDS011;67034;43.226;27.932;2023-09-12T12:16:14;10.05;;;2.70;;
77838;SDS011;67034;43.226;27.932;2023-09-12T12:18:40;7.85;;;3.03;;
77838;SDS011;67034;43.226;27.932;2023-09-12T12:21:06;15.65;;;3.13;;
77838;SDS011;67034;43.226;27.932;2023-09-12T12:23:33;12.50;;;3.50;;
77838;SDS011;67034;43.226;27.932;2023-09-12T12:26:02;10.00;;;3.05;;
77838;SDS011;67034;43.226;27.932;2023-09-12T12:28:28;6.40;;;2.70;;
77838;SDS011;67034;43.226;27.932;2023-09-12T12:30:55;25.67;;;4.43;;
77838;SDS011;67034;43.226;27.932;2023-09-12T12:33:21;9.55;;;3.10;;
77838;SDS011;67034;43.226;27.932;2023-09-12T12:35:47;4.10;;;2.85;;
77838;SDS011;67034;43.226;27.932;2023-09-12T12:38:16;34.53;;;5.22;;
77838;SDS011;67034;43.226;27.932;2023-09-12T12:40:43;6.63;;;3.20;;
77838;SDS011;67034;43.226;27.932;2023-09-12T12:43:15;23.92;;;4.43;;
77838;SDS011;67034;43.226;27.932;2023-09-12T12:45:51;9.23;;;5.22;;
77838;SDS011;67034;43.226;27.932;2023-09-12T12:48:17;11.85;;;4.50;;
77838;SDS011;67034;43.226;27.932;2023-09-12T12:50:55;9.43;;;3.88;;
77838;SDS011;67034;43.226;27.932;2023-09-12T12:56:05;4.75;;;3.35;;
77838;SDS011;67034;43.226;27.932;2023-09-12T12:58:31;8.82;;;3.03;;
77838;SDS011;67034;43.226;27.932;2023-09-12T13:00:57;21.52;;;3.63;;
77838;SDS011;67034;43.226;27.932;2023-09-12T13:03:22;11.48;;;3.30;;
77838;SDS011;67034;43.226;27.932;2023-09-12T13:05:48;12.95;;;3.70;;
77838;SDS011;67034;43.226;27.932;2023-09-12T13:08:15;15.60;;;3.55;;
77838;SDS011;67034;43.226;27.932;2023-09-12T13:10:41;15.40;;;4.00;;
77838;SDS011;67034;43.226;27.932;2023-09-12T13:13:11;10.52;;;3.47;;
77838;SDS011;67034;43.226;27.932;2023-09-12T13:15:37;4.97;;;3.03;;
77838;SDS011;67034;43.226;27.932;2023-09-12T13:18:03;17.17;;;3.97;;
77838;SDS011;67034;43.226;27.932;2023-09-12T13:20:29;22.60;;;4.72;;
77838;SDS011;67034;43.226;27.932;2023-09-12T13:22:55;14.65;;;4.00;;
77838;SDS011;67034;43.226;27.932;2023-09-12T13:25:21;10.65;;;3.95;;
77838;SDS011;67034;43.226;27.932;2023-09-12T13:27:48;9.68;;;3.65;;
77838;SDS011;67034;43.226;27.932;2023-09-12T13:30:17;8.75;;;3.92;;
77838;SDS011;67034;43.226;27.932;2023-09-12T13:32:42;8.13;;;3.72;;
77838;SDS011;67034;43.226;27.932;2023-09-12T13:35:09;11.50;;;3.53;;
77838;SDS011;67034;43.226;27.932;2023-09-12T13:37:34;22.65;;;4.38;;
77838;SDS011;67034;43.226;27.932;2023-09-12T13:40:00;17.67;;;4.53;;
77838;SDS011;67034;43.226;27.932;2023-09-12T13:42:26;12.23;;;4.00;;
77838;SDS011;67034;43.226;27.932;2023-09-12T13:44:56;15.10;;;4.80;;
77838;SDS011;67034;43.226;27.932;2023-09-12T13:47:23;13.77;;;4.25;;
77838;SDS011;67034;43.226;27.932;2023-09-12T13:49:50;13.57;;;3.17;;
77838;SDS011;67034;43.226;27.932;2023-09-12T13:52:19;13.48;;;4.00;;
77838;SDS011;67034;43.226;27.932;2023-09-12T13:54:45;24.60;;;6.80;;
77838;SDS011;67034;43.226;27.932;2023-09-12T13:57:11;3.97;;;2.60;;
77838;SDS011;67034;43.226;27.932;2023-09-12T13:59:37;9.80;;;2.92;;
77838;SDS011;67034;43.226;27.932;2023-09-12T14:02:03;19.73;;;3.92;;
77838;SDS011;67034;43.226;27.932;2023-09-12T14:04:30;24.50;;;4.30;;
77838;SDS011;67034;43.226;27.932;2023-09-12T14:06:56;26.52;;;5.70;;
77838;SDS011;67034;43.226;27.932;2023-09-12T14:09:21;8.43;;;3.85;;
77838;SDS011;67034;43.226;27.932;2023-09-12T14:11:47;17.50;;;4.07;;
77838;SDS011;67034;43.226;27.932;2023-09-12T14:14:13;17.58;;;3.95;;
77838;SDS011;67034;43.226;27.932;2023-09-12T14:16:39;10.95;;;2.85;;
77838;SDS011;67034;43.226;27.932;2023-09-12T14:19:04;12.82;;;3.35;;
77838;SDS011;67034;43.226;27.932;2023-09-12T14:21:32;18.17;;;4.20;;
77838;SDS011;67034;43.226;27.932;2023-09-12T14:23:58;5.78;;;2.80;;
77838;SDS011;67034;43.226;27.932;2023-09-12T14:26:24;19.02;;;3.72;;
77838;SDS011;67034;43.226;27.932;2023-09-12T14:28:50;12.05;;;3.55;;
77838;SDS011;67034;43.226;27.932;2023-09-12T14:31:16;4.13;;;2.60;;